Time;durP1;ratioP1;P1;durP2;ratioP2;P2;SDS_P1;SDS_P2;PMS_P1;PMS_P2;Temp;Humidity;BMP_temperature;BMP_pressure;BME280_temperature;BME280_humidity;BME280_pressure;Samples;Min_cycle;Max_cycle;Signal;HPM_P1;HPM_P2
2023/09/08 00:01:39;;;;;;;9.77;8.73;;;19.70;99.90;;;;;;5070206;28;20206;-75
2023/09/08 00:04:06;;;;;;;9.15;8.35;;;19.70;99.90;;;;;;5058168;28;20051;-75
2023/09/08 00:06:31;;;;;;;9.05;8.15;;;19.60;99.90;;;;;;5068950;28;20044;-75
2023/09/08 00:08:57;;;;;;;10.05;9.02;;;19.60;99.90;;;;;;5090244;28;20049;-75
2023/09/08 00:11:23;;;;;;;10.35;8.13;;;19.50;99.90;;;;;;5042964;28;20131;-75
2023/09/08 00:13:50;;;;;;;11.30;8.95;;;19.40;99.90;;;;;;5055370;28;20049;-75
2023/09/08 00:16:16;;;;;;;10.05;8.98;;;19.30;99.90;;;;;;5057126;28;20674;-75
2023/09/08 00:18:41;;;;;;;9.90;8.95;;;19.30;99.90;;;;;;5053162;28;20109;-75
2023/09/08 00:21:07;;;;;;;13.00;9.13;;;19.20;99.90;;;;;;5042733;28;20535;-75
2023/09/08 00:23:33;;;;;;;8.98;8.18;;;19.10;99.90;;;;;;5054513;28;20050;-75
2023/09/08 00:25:59;;;;;;;10.40;9.40;;;19.10;99.90;;;;;;5054920;28;20040;-75
2023/09/08 00:28:24;;;;;;;13.23;9.70;;;19.10;99.90;;;;;;5061485;28;20171;-75
2023/09/08 00:30:50;;;;;;;12.23;10.50;;;18.90;99.90;;;;;;5060572;28;20082;-75
2023/09/08 00:33:17;;;;;;;11.25;10.25;;;18.90;99.90;;;;;;5063138;28;20043;-75
2023/09/08 00:35:49;;;;;;;11.18;10.00;;;18.90;99.90;;;;;;5043147;28;20037;-75
2023/09/08 00:38:15;;;;;;;10.90;9.85;;;18.80;99.90;;;;;;5059626;28;20538;-75
2023/09/08 00:40:41;;;;;;;10.02;8.88;;;18.70;99.90;;;;;;5048292;28;20052;-75
2023/09/08 00:43:06;;;;;;;10.25;9.18;;;18.70;99.90;;;;;;5078284;28;20260;-75
2023/09/08 00:45:37;;;;;;;10.20;9.30;;;18.60;99.90;;;;;;5056510;28;20123;-75
2023/09/08 00:48:03;;;;;;;11.02;9.93;;;18.60;99.90;;;;;;5070634;28;20101;-75
2023/09/08 00:50:29;;;;;;;11.75;10.45;;;18.50;99.90;;;;;;5064662;28;20040;-75
2023/09/08 00:52:55;;;;;;;9.50;8.38;;;18.50;99.90;;;;;;5039802;28;20047;-75
2023/09/08 00:55:20;;;;;;;10.32;9.25;;;18.40;99.90;;;;;;5046424;28;20171;-75
2023/09/08 00:57:46;;;;;;;10.55;9.00;;;18.30;99.90;;;;;;5065490;28;20097;-75
2023/09/08 01:00:13;;;;;;;10.88;9.80;;;18.30;99.90;;;;;;5068980;28;20032;-75
2023/09/08 01:02:39;;;;;;;11.75;10.65;;;18.30;99.90;;;;;;5052580;28;20048;-75
2023/09/08 01:05:05;;;;;;;11.60;10.27;;;18.20;99.90;;;;;;5064184;28;20059;-75
2023/09/08 01:07:32;;;;;;;10.90;9.80;;;18.20;99.90;;;;;;5058959;28;20079;-75
2023/09/08 01:10:03;;;;;;;10.70;9.70;;;18.10;99.90;;;;;;5098106;27;20033;-75
2023/09/08 01:12:29;;;;;;;12.50;11.20;;;18.10;99.90;;;;;;5060279;28;20066;-75
2023/09/08 01:14:55;;;;;;;10.18;9.18;;;18.10;99.90;;;;;;5067159;28;20040;-75
2023/09/08 01:17:21;;;;;;;11.05;9.93;;;18.00;99.90;;;;;;5052678;28;20056;-75
2023/09/08 01:19:48;;;;;;;11.57;10.55;;;18.10;99.90;;;;;;5048063;28;20054;-75
2023/09/08 01:22:41;;;;;;;10.25;9.35;;;18.20;99.90;;;;;;5065702;28;20059;-75
2023/09/08 01:25:17;;;;;;;10.50;9.40;;;18.20;99.90;;;;;;5065257;28;20064;-75
2023/09/08 01:27:48;;;;;;;10.60;9.60;;;18.20;99.90;;;;;;5039164;28;20044;-75
2023/09/08 01:30:15;;;;;;;12.38;10.40;;;18.20;99.90;;;;;;5065316;28;20399;-75
2023/09/08 01:32:44;;;;;;;14.35;10.02;;;18.30;99.90;;;;;;5065281;28;20366;-75
2023/09/08 01:35:11;;;;;;;10.82;9.73;;;18.30;99.90;;;;;;5079838;28;20394;-75
2023/09/08 01:37:40;;;;;;;11.60;9.40;;;18.30;99.90;;;;;;5061313;28;20059;-75
2023/09/08 01:40:07;;;;;;;12.25;10.15;;;18.30;99.90;;;;;;5061794;28;20462;-75
2023/09/08 01:42:32;;;;;;;11.93;10.82;;;18.30;99.90;;;;;;5066357;28;20060;-75
2023/09/08 01:44:58;;;;;;;10.00;9.10;;;18.30;99.90;;;;;;5062101;28;20051;-75
2023/09/08 01:47:24;;;;;;;11.05;9.95;;;18.30;99.90;;;;;;5050901;28;20097;-75
2023/09/08 01:49:49;;;;;;;10.80;9.68;;;18.30;99.90;;;;;;5059640;28;20400;-75
2023/09/08 01:52:15;;;;;;;11.25;10.25;;;18.20;99.90;;;;;;5067072;28;20044;-75
2023/09/08 01:54:44;;;;;;;12.32;9.90;;;18.20;99.90;;;;;;5066066;28;21137;-74
2023/09/08 01:57:09;;;;;;;12.50;11.40;;;18.10;99.90;;;;;;5065488;28;20048;-74
2023/09/08 01:59:36;;;;;;;12.40;11.23;;;18.10;99.90;;;;;;5060406;28;20036;-75
2023/09/08 02:02:03;;;;;;;11.27;10.27;;;18.00;99.90;;;;;;5042207;28;20135;-75
2023/09/08 02:04:29;;;;;;;12.77;11.38;;;18.00;99.90;;;;;;5044915;28;20040;-75
2023/09/08 02:06:55;;;;;;;12.38;11.13;;;17.90;99.90;;;;;;5061594;28;20155;-75
2023/09/08 02:09:21;;;;;;;12.38;11.27;;;17.90;99.90;;;;;;5060675;28;20043;-75
2023/09/08 02:11:46;;;;;;;13.50;12.30;;;17.80;99.90;;;;;;5060928;28;20033;-75
2023/09/08 02:14:12;;;;;;;11.38;10.25;;;17.80;99.90;;;;;;5059466;28;20098;-75
2023/09/08 02:16:38;;;;;;;13.40;12.20;;;17.70;99.90;;;;;;5064925;28;20051;-75
2023/09/08 02:19:03;;;;;;;14.30;13.07;;;17.70;99.90;;;;;;5067787;28;20478;-75
2023/09/08 02:21:29;;;;;;;13.93;12.77;;;17.60;99.90;;;;;;5066102;28;20101;-75
2023/09/08 02:23:55;;;;;;;12.80;11.60;;;17.60;99.90;;;;;;5046543;28;20052;-75
2023/09/08 02:26:21;;;;;;;12.65;11.55;;;17.50;99.90;;;;;;5060223;28;20411;-75
2023/09/08 02:28:47;;;;;;;12.32;11.23;;;17.50;99.90;;;;;;5072587;28;20044;-75
2023/09/08 02:31:15;;;;;;;10.77;9.75;;;17.50;99.90;;;;;;5048147;28;20052;-75
2023/09/08 02:33:41;;;;;;;10.48;9.48;;;17.40;99.90;;;;;;5063922;28;20044;-76
2023/09/08 02:36:07;;;;;;;13.88;12.50;;;17.40;99.90;;;;;;5070636;28;20567;-75
2023/09/08 02:38:33;;;;;;;12.05;11.05;;;17.40;99.90;;;;;;5066065;28;20074;-75
2023/09/08 02:40:58;;;;;;;12.25;11.05;;;17.40;99.90;;;;;;5069275;28;20900;-75
2023/09/08 02:43:24;;;;;;;11.95;10.57;;;17.30;99.90;;;;;;5062090;28;20040;-75
2023/09/08 02:45:50;;;;;;;11.32;10.23;;;17.40;99.90;;;;;;5053557;28;20040;-75
2023/09/08 02:48:16;;;;;;;12.93;11.63;;;17.40;99.90;;;;;;5065362;28;20522;-75
2023/09/08 02:50:43;;;;;;;12.43;11.23;;;17.40;99.90;;;;;;5070494;28;20058;-75
2023/09/08 02:53:09;;;;;;;12.10;10.82;;;17.40;99.90;;;;;;5045440;28;20494;-75
2023/09/08 02:55:37;;;;;;;11.63;10.52;;;17.40;99.90;;;;;;5060777;28;20040;-75
2023/09/08 02:58:03;;;;;;;12.93;11.63;;;17.40;99.90;;;;;;5057552;28;20112;-75
2023/09/08 03:00:29;;;;;;;12.23;11.23;;;17.40;99.90;;;;;;5055268;28;20067;-75
2023/09/08 03:02:55;;;;;;;12.80;11.60;;;17.40;99.90;;;;;;5058645;28;20037;-74
2023/09/08 03:05:21;;;;;;;12.48;11.38;;;17.50;99.90;;;;;;5045799;28;20052;-75
2023/09/08 03:07:50;;;;;;;13.18;11.77;;;17.50;99.90;;;;;;5059170;28;20517;-76
2023/09/08 03:10:15;;;;;;;12.20;10.93;;;17.60;99.90;;;;;;5061450;28;20056;-75
2023/09/08 03:12:41;;;;;;;13.25;12.00;;;17.50;99.90;;;;;;5058483;28;20069;-75
2023/09/08 03:15:07;;;;;;;12.70;11.55;;;17.50;99.90;;;;;;5062816;28;20045;-75
2023/09/08 03:17:34;;;;;;;12.52;11.23;;;17.50;99.90;;;;;;5060877;28;20040;-75
2023/09/08 03:19:59;;;;;;;13.50;12.25;;;17.60;99.90;;;;;;5046866;28;20028;-75
2023/09/08 03:22:25;;;;;;;12.18;10.98;;;17.50;99.90;;;;;;5060617;28;20052;-75
2023/09/08 03:24:52;;;;;;;12.73;11.52;;;17.40;99.90;;;;;;5051516;28;20045;-75
2023/09/08 03:27:18;;;;;;;12.65;11.48;;;17.40;99.90;;;;;;5041037;28;20051;-75
2023/09/08 03:29:43;;;;;;;12.77;11.52;;;17.30;99.90;;;;;;5056733;28;20049;-75
2023/09/08 03:32:09;;;;;;;13.88;12.52;;;17.30;99.90;;;;;;5042147;28;20048;-75
2023/09/08 03:34:39;;;;;;;12.75;11.65;;;17.30;99.90;;;;;;5064500;28;20051;-75
2023/09/08 03:37:05;;;;;;;16.30;13.40;;;17.30;99.90;;;;;;5043781;28;20037;-74
2023/09/08 03:39:31;;;;;;;12.57;11.27;;;17.30;99.90;;;;;;5049517;28;20055;-75
2023/09/08 03:41:57;;;;;;;14.52;12.48;;;17.30;99.90;;;;;;5050090;28;20063;-74
2023/09/08 03:44:22;;;;;;;14.23;13.02;;;17.20;99.90;;;;;;5060277;28;20044;-74
2023/09/08 03:46:48;;;;;;;13.52;12.23;;;17.20;99.90;;;;;;5062071;28;20208;-74
2023/09/08 03:49:14;;;;;;;15.88;14.40;;;17.10;99.90;;;;;;5041713;28;20510;-74
2023/09/08 03:51:39;;;;;;;15.52;14.13;;;17.00;99.90;;;;;;5058727;28;20059;-74
2023/09/08 03:54:05;;;;;;;16.40;14.90;;;17.00;99.90;;;;;;5057877;28;20487;-74
2023/09/08 03:56:31;;;;;;;15.98;14.48;;;17.00;99.90;;;;;;5043945;28;20044;-75
2023/09/08 03:58:57;;;;;;;15.95;14.55;;;16.90;99.90;;;;;;5061037;28;20440;-74
2023/09/08 04:01:22;;;;;;;16.48;15.07;;;16.90;99.90;;;;;;5058279;28;20128;-75
2023/09/08 04:03:48;;;;;;;18.48;16.88;;;16.80;99.90;;;;;;5041989;28;20542;-75
2023/09/08 04:06:14;;;;;;;14.07;12.80;;;16.80;99.90;;;;;;5044737;28;20047;-75
2023/09/08 04:08:39;;;;;;;15.13;13.70;;;16.70;99.90;;;;;;5063180;28;20055;-75
2023/09/08 04:11:05;;;;;;;14.75;13.40;;;16.70;99.90;;;;;;5047443;28;20494;-75
2023/09/08 04:13:31;;;;;;;14.02;12.82;;;16.70;99.90;;;;;;5064678;28;20044;-74
2023/09/08 04:15:57;;;;;;;15.88;14.48;;;16.60;99.90;;;;;;5043545;28;20071;-76
2023/09/08 04:18:22;;;;;;;17.60;16.02;;;16.60;99.90;;;;;;5051890;28;20445;-74
2023/09/08 04:20:48;;;;;;;18.70;17.05;;;16.50;99.90;;;;;;5077735;28;20498;-75
2023/09/08 04:23:14;;;;;;;16.85;15.25;;;16.50;99.90;;;;;;5063719;28;20028;-74
2023/09/08 04:25:39;;;;;;;17.80;16.20;;;16.40;99.90;;;;;;5053827;28;20388;-75
2023/09/08 04:28:05;;;;;;;14.90;13.60;;;16.50;99.90;;;;;;5081456;28;20495;-75
2023/09/08 04:30:31;;;;;;;18.17;16.38;;;16.40;99.90;;;;;;5064390;28;20070;-74
2023/09/08 04:32:57;;;;;;;15.82;14.50;;;16.40;99.90;;;;;;5056139;28;20068;-74
2023/09/08 04:35:22;;;;;;;18.58;16.88;;;16.40;99.90;;;;;;5051680;28;20059;-76
2023/09/08 04:37:48;;;;;;;18.33;16.67;;;16.40;99.90;;;;;;5050814;28;20448;-74
2023/09/08 04:40:14;;;;;;;17.50;16.08;;;16.30;99.90;;;;;;5051694;28;20415;-74
2023/09/08 04:42:40;;;;;;;18.27;16.63;;;16.30;99.90;;;;;;5053605;28;20140;-75
2023/09/08 04:45:07;;;;;;;16.45;14.90;;;16.30;99.90;;;;;;5081444;28;20151;-74
2023/09/08 04:47:33;;;;;;;17.67;16.13;;;16.30;99.90;;;;;;5057865;28;20057;-74
2023/09/08 04:49:58;;;;;;;18.60;17.02;;;16.20;99.90;;;;;;5058873;28;20086;-74
2023/09/08 04:52:24;;;;;;;19.58;17.77;;;16.20;99.90;;;;;;5054228;28;20098;-74
2023/09/08 04:54:50;;;;;;;19.48;17.58;;;16.20;99.90;;;;;;5066228;28;20129;-75
2023/09/08 04:57:15;;;;;;;18.38;16.58;;;16.20;99.90;;;;;;5067191;28;20423;-74
2023/09/08 04:59:41;;;;;;;19.58;17.73;;;16.20;99.90;;;;;;5048128;28;20045;-74
2023/09/08 05:02:07;;;;;;;19.10;17.50;;;16.10;99.90;;;;;;5067273;28;20546;-74
2023/09/08 05:04:32;;;;;;;20.25;18.45;;;16.10;99.90;;;;;;5065209;28;20139;-74
2023/09/08 05:06:58;;;;;;;20.05;18.20;;;16.10;99.90;;;;;;5060698;28;20499;-75
2023/09/08 05:09:24;;;;;;;20.60;18.70;;;16.10;99.90;;;;;;5054338;28;20044;-75
2023/09/08 05:11:49;;;;;;;18.52;16.88;;;16.10;99.90;;;;;;5057119;28;20163;-74
2023/09/08 05:14:15;;;;;;;19.48;17.70;;;16.00;99.90;;;;;;5060552;28;20536;-76
2023/09/08 05:16:49;;;;;;;20.38;18.58;;;16.10;99.90;;;;;;5056260;28;20048;-75
2023/09/08 05:19:15;;;;;;;16.50;15.10;;;16.10;99.90;;;;;;5058311;28;20091;-74
2023/09/08 05:21:43;;;;;;;19.10;17.45;;;16.10;99.90;;;;;;5054943;28;20428;-74
2023/09/08 05:24:09;;;;;;;18.23;16.63;;;16.10;99.90;;;;;;5048890;28;20047;-75
2023/09/08 05:26:37;;;;;;;19.55;17.85;;;16.10;99.90;;;;;;5058187;28;20049;-74
2023/09/08 05:29:03;;;;;;;18.52;16.83;;;16.10;99.90;;;;;;5051335;28;20475;-75
2023/09/08 05:31:32;;;;;;;18.00;16.40;;;16.10;99.90;;;;;;5058398;28;20078;-74
2023/09/08 05:33:57;;;;;;;18.20;16.60;;;16.20;99.90;;;;;;5059691;28;20382;-74
2023/09/08 05:36:23;;;;;;;18.48;16.70;;;16.20;99.90;;;;;;5067058;28;20110;-74
2023/09/08 05:38:49;;;;;;;20.23;18.52;;;16.10;99.90;;;;;;5049225;28;20420;-74
2023/09/08 05:41:15;;;;;;;18.45;16.58;;;16.20;99.90;;;;;;5065731;28;20060;-74
2023/09/08 05:43:41;;;;;;;16.25;14.85;;;16.20;99.90;;;;;;5045972;28;20518;-75
2023/09/08 05:46:07;;;;;;;16.60;15.10;;;16.30;99.90;;;;;;5060026;28;20079;-75
2023/09/08 05:48:32;;;;;;;15.35;13.90;;;16.30;99.90;;;;;;5048648;28;20080;-74
2023/09/08 05:50:58;;;;;;;17.38;15.98;;;16.30;99.90;;;;;;5054560;28;20097;-75
2023/09/08 05:53:24;;;;;;;16.65;14.88;;;16.30;99.90;;;;;;5048556;28;20049;-75
2023/09/08 05:55:50;;;;;;;19.02;17.33;;;16.30;99.90;;;;;;5062398;28;20681;-74
2023/09/08 05:58:16;;;;;;;18.08;16.38;;;16.40;99.90;;;;;;5059276;28;20077;-75
2023/09/08 06:00:42;;;;;;;16.00;14.57;;;16.50;99.90;;;;;;5069496;28;20068;-75
2023/09/08 06:03:08;;;;;;;15.50;14.00;;;16.50;99.90;;;;;;5062604;28;20040;-75
2023/09/08 06:05:34;;;;;;;15.90;14.55;;;16.50;99.90;;;;;;5062029;28;20093;-75
2023/09/08 06:07:59;;;;;;;15.10;13.70;;;16.50;99.90;;;;;;5047396;28;20036;-75
2023/09/08 06:10:25;;;;;;;16.35;14.85;;;16.60;99.90;;;;;;5062003;28;20056;-75
2023/09/08 06:12:51;;;;;;;14.77;13.43;;;16.60;99.90;;;;;;5060269;28;20043;-75
2023/09/08 06:15:17;;;;;;;17.13;15.52;;;16.70;99.90;;;;;;5059111;28;20051;-75
2023/09/08 06:17:43;;;;;;;15.85;14.15;;;16.80;99.90;;;;;;5049957;28;20072;-76
2023/09/08 06:20:09;;;;;;;16.48;14.95;;;16.80;99.90;;;;;;5052165;28;20505;-76
2023/09/08 06:22:35;;;;;;;16.17;14.60;;;16.90;99.90;;;;;;5043198;28;20040;-76
2023/09/08 06:25:01;;;;;;;16.42;14.70;;;16.90;99.90;;;;;;5067086;28;20544;-76
2023/09/08 06:27:27;;;;;;;18.35;16.52;;;17.00;99.90;;;;;;5064570;28;20055;-75
2023/09/08 06:29:53;;;;;;;16.75;15.10;;;17.10;99.90;;;;;;5064434;28;20044;-75
2023/09/08 06:32:18;;;;;;;15.95;14.55;;;17.10;99.90;;;;;;5048531;28;20048;-75
2023/09/08 06:34:44;;;;;;;17.63;15.93;;;17.10;99.90;;;;;;5048886;28;20045;-75
2023/09/08 06:37:10;;;;;;;18.30;16.42;;;17.20;99.90;;;;;;5049128;28;20042;-75
2023/09/08 06:39:36;;;;;;;16.95;15.35;;;17.20;99.90;;;;;;5064459;28;20045;-75
2023/09/08 06:42:02;;;;;;;16.80;15.25;;;17.30;99.90;;;;;;5060025;28;20049;-75
2023/09/08 06:44:28;;;;;;;16.08;14.57;;;17.40;99.90;;;;;;5061744;28;20044;-75
2023/09/08 06:46:53;;;;;;;15.68;14.07;;;17.50;99.90;;;;;;5078789;28;20454;-75
2023/09/08 06:49:19;;;;;;;16.83;15.25;;;17.50;99.90;;;;;;5049566;28;20044;-75
2023/09/08 06:51:47;;;;;;;15.80;14.23;;;17.60;99.90;;;;;;5066350;28;20044;-75
2023/09/08 06:54:13;;;;;;;15.07;13.65;;;17.70;99.90;;;;;;5043647;28;20045;-75
2023/09/08 06:56:38;;;;;;;15.25;13.90;;;17.70;99.90;;;;;;5065027;28;20159;-75
2023/09/08 06:59:05;;;;;;;16.85;15.13;;;17.90;99.90;;;;;;5061326;28;20112;-75
2023/09/08 07:01:30;;;;;;;15.52;13.85;;;17.90;99.90;;;;;;5062858;28;20621;-75
2023/09/08 07:03:56;;;;;;;16.20;14.60;;;18.00;99.90;;;;;;5072388;28;20032;-75
2023/09/08 07:06:22;;;;;;;15.43;13.85;;;18.10;99.90;;;;;;5069800;28;20038;-75
2023/09/08 07:08:52;;;;;;;16.20;14.80;;;18.20;99.90;;;;;;5057307;28;20045;-75
2023/09/08 07:11:17;;;;;;;15.52;14.10;;;18.30;99.90;;;;;;5048792;28;20071;-75
2023/09/08 07:13:43;;;;;;;15.00;13.52;;;18.50;99.90;;;;;;5046393;28;20534;-75
2023/09/08 07:16:09;;;;;;;15.02;13.43;;;18.60;99.90;;;;;;5063871;28;20040;-75
2023/09/08 07:18:35;;;;;;;16.13;12.55;;;18.80;99.90;;;;;;5067517;28;20049;-76
2023/09/08 07:21:02;;;;;;;13.90;12.57;;;19.00;99.90;;;;;;5059573;28;20046;-76
2023/09/08 07:23:28;;;;;;;13.50;11.75;;;19.20;99.90;;;;;;5061021;28;20047;-76
2023/09/08 07:25:54;;;;;;;12.07;10.93;;;19.40;99.90;;;;;;5057304;28;20036;-76
2023/09/08 07:28:19;;;;;;;12.68;11.55;;;19.60;99.90;;;;;;5063328;28;20465;-75
2023/09/08 07:30:45;;;;;;;12.02;10.85;;;19.80;99.90;;;;;;5070336;28;20035;-75
2023/09/08 07:33:11;;;;;;;12.52;11.13;;;20.00;99.90;;;;;;5060235;28;20060;-75
2023/09/08 07:35:40;;;;;;;11.77;10.65;;;20.20;99.90;;;;;;5044357;28;20079;-75
2023/09/08 07:38:06;;;;;;;12.35;11.18;;;20.40;99.90;;;;;;5096774;27;20083;-75
2023/09/08 07:40:33;;;;;;;11.20;10.10;;;20.70;99.90;;;;;;5036820;28;20052;-75
2023/09/08 07:43:00;;;;;;;11.68;10.20;;;20.80;99.90;;;;;;5059412;28;20048;-75
2023/09/08 07:45:26;;;;;;;11.32;9.95;;;21.00;99.90;;;;;;5056638;28;20148;-75
2023/09/08 07:47:52;;;;;;;10.77;9.77;;;21.10;99.90;;;;;;5057718;28;20044;-75
2023/09/08 07:50:22;;;;;;;12.27;10.32;;;21.30;99.90;;;;;;5059947;28;20714;-76
2023/09/08 07:52:48;;;;;;;;;;;21.50;99.90;;;;;;5045249;28;20673;-75
2023/09/08 07:55:15;;;;;;;10.13;9.13;;;21.70;99.90;;;;;;5051179;28;20015;-75
2023/09/08 07:57:45;;;;;;;9.23;8.25;;;21.80;99.90;;;;;;5044321;28;20055;-76
2023/09/08 08:00:13;;;;;;;9.68;8.68;;;22.00;99.90;;;;;;5053336;28;20036;-76
2023/09/08 08:02:43;;;;;;;9.23;8.32;;;22.20;99.90;;;;;;5051794;28;20158;-76
2023/09/08 08:05:10;;;;;;;9.05;7.88;;;22.40;99.90;;;;;;5075465;28;20141;-76
2023/09/08 08:07:39;;;;;;;9.90;8.87;;;22.60;99.90;;;;;;5066099;28;20058;-76
2023/09/08 08:10:06;;;;;;;9.40;8.50;;;22.70;99.90;;;;;;5066535;28;20049;-76
2023/09/08 08:12:32;;;;;;;9.32;8.15;;;22.90;99.90;;;;;;5051467;28;20044;-76
2023/09/08 08:14:58;;;;;;;9.48;8.50;;;23.10;99.90;;;;;;5059099;28;20067;-76
2023/09/08 08:17:26;;;;;;;8.18;7.38;;;23.20;99.90;;;;;;5064710;28;20044;-76
2023/09/08 08:19:52;;;;;;;10.50;8.27;;;23.30;99.90;;;;;;5049547;28;20032;-76
2023/09/08 08:22:18;;;;;;;8.00;7.18;;;23.50;99.90;;;;;;5050676;28;20704;-76
2023/09/08 08:24:44;;;;;;;9.60;8.65;;;23.60;99.90;;;;;;5064573;28;20047;-76
2023/09/08 08:27:10;;;;;;;8.95;7.30;;;23.70;99.90;;;;;;5067480;28;20047;-76
2023/09/08 08:29:35;;;;;;;8.82;7.55;;;23.90;99.90;;;;;;5045492;28;20044;-76
2023/09/08 08:32:01;;;;;;;10.85;8.65;;;24.00;99.90;;;;;;5045878;28;20048;-75
2023/09/08 08:34:27;;;;;;;9.85;7.65;;;24.10;99.90;;;;;;5041766;28;20040;-75
2023/09/08 08:36:53;;;;;;;8.45;7.35;;;24.20;99.90;;;;;;5048097;28;20131;-75
2023/09/08 08:39:19;;;;;;;9.38;6.90;;;24.30;99.90;;;;;;5042855;28;20052;-75
2023/09/08 08:41:45;;;;;;;9.05;7.55;;;24.40;99.90;;;;;;5063725;28;20096;-76
2023/09/08 08:44:11;;;;;;;8.18;7.40;;;24.50;99.90;;;;;;5045316;28;20119;-76
2023/09/08 08:46:38;;;;;;;10.35;7.70;;;24.70;99.90;;;;;;5045728;28;20119;-76
2023/09/08 08:49:04;;;;;;;9.88;7.18;;;24.80;99.90;;;;;;5044500;28;20107;-75
2023/09/08 08:51:31;;;;;;;10.85;7.00;;;24.90;99.90;;;;;;5053955;28;20045;-76
2023/09/08 08:53:57;;;;;;;8.23;7.25;;;25.00;99.90;;;;;;5050982;28;20047;-76
2023/09/08 08:56:23;;;;;;;8.07;7.03;;;25.10;99.90;;;;;;5058692;28;20049;-76
2023/09/08 08:58:53;;;;;;;7.60;6.65;;;25.20;99.90;;;;;;5056296;28;20048;-77
2023/09/08 09:01:19;;;;;;;;;;;25.30;99.90;;;;;;5091048;28;20625;-75
2023/09/08 09:03:50;;;;;;;6.97;5.82;;;25.40;99.90;;;;;;5057732;28;19924;-75
2023/09/08 09:06:16;;;;;;;7.93;6.22;;;25.50;99.90;;;;;;5056437;28;20052;-76
2023/09/08 09:08:46;;;;;;;7.90;6.40;;;25.60;99.90;;;;;;5066269;28;20032;-76
2023/09/08 09:11:12;;;;;;;8.93;6.20;;;25.70;99.90;;;;;;5053823;28;20056;-76
2023/09/08 09:13:39;;;;;;;7.65;6.40;;;25.80;99.90;;;;;;5061214;28;20379;-76
2023/09/08 09:16:07;;;;;;;7.32;6.57;;;25.90;99.90;;;;;;5048559;28;20037;-75
2023/09/08 09:18:33;;;;;;;6.78;5.90;;;25.90;99.90;;;;;;5064224;28;20060;-76
2023/09/08 09:21:01;;;;;;;7.88;6.03;;;25.90;99.90;;;;;;5059224;28;20037;-76
2023/09/08 09:23:31;;;;;;;6.88;6.18;;;26.00;99.90;;;;;;5063630;28;20090;-76
2023/09/08 09:25:58;;;;;;;8.38;6.57;;;26.10;99.90;;;;;;5047847;28;20525;-76
2023/09/08 09:28:25;;;;;;;7.25;5.85;;;26.20;99.90;;;;;;5065309;28;20066;-76
2023/09/08 09:30:54;;;;;;;7.97;6.10;;;26.40;99.90;;;;;;5060595;28;20044;-76
2023/09/08 09:33:23;;;;;;;6.47;5.53;;;26.50;99.90;;;;;;5061611;28;20064;-75
2023/09/08 09:35:54;;;;;;;10.07;6.53;;;26.70;99.90;;;;;;5062770;28;20502;-76
2023/09/08 09:38:20;;;;;;;8.25;6.55;;;26.70;99.90;;;;;;5069569;28;20029;-76
2023/09/08 09:40:47;;;;;;;6.80;6.10;;;26.80;99.10;;;;;;5063344;28;20052;-76
2023/09/08 09:43:14;;;;;;;8.52;5.47;;;26.80;99.60;;;;;;5048231;28;20110;-76
2023/09/08 09:45:41;;;;;;;9.18;6.85;;;26.80;99.90;;;;;;5062079;28;20044;-76
2023/09/08 09:48:09;;;;;;;6.50;5.85;;;27.00;99.90;;;;;;5067497;28;20277;-75
2023/09/08 09:50:37;;;;;;;6.53;5.82;;;27.00;99.60;;;;;;5060119;28;20564;-76
2023/09/08 09:53:11;;;;;;;9.27;6.93;;;27.10;99.90;;;;;;5057442;28;20044;-76
2023/09/08 09:55:38;;;;;;;6.80;6.10;;;27.20;99.90;;;;;;5075230;28;20141;-75
2023/09/08 09:58:10;;;;;;;7.85;6.40;;;27.30;99.20;;;;;;5059855;28;20044;-76
2023/09/08 10:00:47;;;;;;;11.25;6.88;;;27.40;98.50;;;;;;5045265;28;20123;-76
2023/09/08 10:03:14;;;;;;;6.72;6.05;;;27.50;99.40;;;;;;5048683;28;20040;-76
2023/09/08 10:05:39;;;;;;;6.63;5.97;;;27.60;99.70;;;;;;5060864;28;20167;-75
2023/09/08 10:08:05;;;;;;;9.15;6.60;;;27.70;98.50;;;;;;5046777;28;20115;-76
2023/09/08 10:10:34;;;;;;;6.85;6.15;;;27.80;97.60;;;;;;5048785;28;20505;-76
2023/09/08 10:13:06;;;;;;;7.53;6.78;;;27.90;97.60;;;;;;5057786;28;20056;-75
2023/09/08 10:15:31;;;;;;;7.78;6.15;;;27.90;96.80;;;;;;5060012;28;20498;-75
2023/09/08 10:17:59;;;;;;;7.53;6.30;;;28.00;96.50;;;;;;5051161;28;20137;-76
2023/09/08 10:20:26;;;;;;;6.30;5.60;;;28.10;96.40;;;;;;5067537;28;20044;-76
2023/09/08 10:23:22;;;;;;;7.57;5.95;;;28.10;95.90;;;;;;5052674;28;20040;-76
2023/09/08 10:25:54;;;;;;;9.52;5.20;;;28.20;96.20;;;;;;5057151;28;20079;-75
2023/09/08 10:28:25;;;;;;;7.07;6.07;;;28.30;95.60;;;;;;5064675;28;20075;-75
2023/09/08 10:30:52;;;;;;;7.47;6.30;;;28.40;95.50;;;;;;5064508;28;20077;-76
2023/09/08 10:33:19;;;;;;;7.45;5.63;;;28.50;95.30;;;;;;5072750;28;20583;-75
2023/09/08 10:35:45;;;;;;;8.45;5.93;;;28.50;95.30;;;;;;5062535;28;20044;-75
2023/09/08 10:38:33;;;;;;;6.38;5.78;;;28.60;95.40;;;;;;5043934;28;20079;-75
2023/09/08 10:41:18;;;;;;;6.78;6.15;;;28.80;96.30;;;;;;5074908;28;20502;-74
2023/09/08 10:43:44;;;;;;;9.27;6.03;;;28.80;95.50;;;;;;5082151;28;20048;-75
2023/09/08 10:46:20;;;;;;;8.30;5.90;;;28.80;94.70;;;;;;5062950;28;20102;-75
2023/09/08 10:48:46;;;;;;;8.50;6.07;;;28.80;94.70;;;;;;5043732;28;20102;-75
2023/09/08 10:51:18;;;;;;;6.43;5.65;;;28.90;94.30;;;;;;5062850;28;20044;-75
2023/09/08 10:53:48;;;;;;;8.13;6.25;;;28.90;95.10;;;;;;5076542;28;20076;-75
2023/09/08 10:56:13;;;;;;;;;;;29.00;94.20;;;;;;5063925;28;20056;-74
2023/09/08 10:58:42;;;;;;;8.38;5.50;;;29.10;94.10;;;;;;5063212;28;20262;-75
2023/09/08 11:01:13;;;;;;;8.15;5.78;;;29.10;93.80;;;;;;5052672;28;20072;-74
2023/09/08 11:03:39;;;;;;;6.78;5.85;;;29.20;93.80;;;;;;5064641;28;20051;-75
2023/09/08 11:06:05;;;;;;;11.55;5.78;;;29.30;93.10;;;;;;5045986;28;20036;-74
2023/09/08 11:08:33;;;;;;;5.97;4.65;;;29.40;92.90;;;;;;5069395;28;20137;-75
2023/09/08 11:11:00;;;;;;;7.13;5.95;;;29.40;93.00;;;;;;5083531;27;20053;-75
2023/09/08 11:13:28;;;;;;;8.10;5.63;;;29.50;91.80;;;;;;5052747;28;20128;-75
2023/09/08 11:15:54;;;;;;;8.00;4.95;;;29.60;91.50;;;;;;5044106;28;20049;-75
2023/09/08 11:18:30;;;;;;;5.78;4.82;;;29.60;91.20;;;;;;5042588;28;20534;-75
2023/09/08 11:20:57;;;;;;;8.13;5.28;;;29.70;90.50;;;;;;5061858;28;20040;-75
2023/09/08 11:23:24;;;;;;;6.88;5.10;;;29.80;90.10;;;;;;5067745;28;20338;-75
2023/09/08 11:25:51;;;;;;;6.18;4.88;;;29.90;89.20;;;;;;5064365;28;20581;-75
2023/09/08 11:28:28;;;;;;;5.70;5.13;;;30.00;88.80;;;;;;5060579;28;20399;-75
2023/09/08 11:30:55;;;;;;;10.20;5.35;;;30.00;88.60;;;;;;5061379;28;20070;-74
2023/09/08 11:33:25;;;;;;;8.57;5.28;;;30.00;87.50;;;;;;5054508;28;20048;-75
2023/09/08 11:35:52;;;;;;;8.30;5.00;;;30.00;86.90;;;;;;5044317;28;20131;-74
2023/09/08 11:38:24;;;;;;;6.97;5.05;;;30.10;84.60;;;;;;5058384;28;20399;-74
2023/09/08 11:40:49;;;;;;;6.63;4.82;;;30.00;82.30;;;;;;5060405;28;20060;-74
2023/09/08 11:43:18;;;;;;;7.40;4.70;;;30.10;79.90;;;;;;5062073;28;20052;-75
2023/09/08 11:45:44;;;;;;;4.93;4.43;;;30.10;80.90;;;;;;5063727;28;20131;-75
2023/09/08 11:48:14;;;;;;;8.00;4.85;;;30.20;80.20;;;;;;5059556;28;20123;-73
2023/09/08 11:50:40;;;;;;;;;;;30.30;81.30;;;;;;5064706;28;20429;-74
2023/09/08 11:53:06;;;;;;;7.18;4.47;;;30.30;81.10;;;;;;5063508;28;19923;-75
2023/09/08 11:55:32;;;;;;;6.20;4.68;;;30.40;79.40;;;;;;5068350;28;20047;-75
2023/09/08 11:58:00;;;;;;;5.78;4.57;;;30.40;78.10;;;;;;5062538;28;20463;-75
2023/09/08 12:00:27;;;;;;;6.40;4.47;;;30.40;77.10;;;;;;5050988;28;20035;-75
2023/09/08 12:02:53;;;;;;;6.28;4.47;;;30.40;75.50;;;;;;5049888;28;20074;-74
2023/09/08 12:05:23;;;;;;;5.03;4.13;;;30.40;74.20;;;;;;5059023;28;20044;-75
2023/09/08 12:07:56;;;;;;;4.93;4.13;;;30.40;74.50;;;;;;5042472;28;20071;-75
2023/09/08 12:10:23;;;;;;;5.38;4.28;;;30.40;74.00;;;;;;5045533;28;20055;-75
2023/09/08 12:12:55;;;;;;;6.93;4.63;;;30.30;72.80;;;;;;5043383;28;20049;-75
2023/09/08 12:15:33;;;;;;;5.05;4.30;;;30.20;71.00;;;;;;5061073;28;20079;-75
2023/09/08 12:18:00;;;;;;;5.22;4.20;;;30.30;69.70;;;;;;5057102;28;20039;-75
2023/09/08 12:20:26;;;;;;;6.18;4.45;;;30.20;69.40;;;;;;5067477;28;20066;-75
2023/09/08 12:22:52;;;;;;;5.78;4.55;;;30.10;71.50;;;;;;5062325;28;20036;-74
2023/09/08 12:25:18;;;;;;;6.80;4.68;;;30.20;70.20;;;;;;5046739;28;20040;-74
2023/09/08 12:27:48;;;;;;;5.32;3.97;;;30.30;70.10;;;;;;5056871;28;20064;-75
2023/09/08 12:30:24;;;;;;;4.90;3.95;;;30.20;69.80;;;;;;5063057;28;20122;-75
2023/09/08 12:32:50;;;;;;;17.85;5.13;;;30.20;70.50;;;;;;5076865;28;20502;-74
2023/09/08 12:35:22;;;;;;;6.57;4.00;;;30.20;71.60;;;;;;5063954;28;20200;-75